Time;durP1;ratioP1;P1;durP2;ratioP2;P2;SDS_P1;SDS_P2;PMS_P1;PMS_P2;Temp;Humidity;BMP_temperature;BMP_pressure;BME280_temperature;BME280_humidity;BME280_pressure;Samples;Min_cycle;Max_cycle;Signal;HPM_P1;HPM_P2
2021/12/11 00:00:24;;;;;;;14.23;9.40;;;;;;;-140.05;100.00;61859.38;5031445;28;20207;-60
2021/12/11 00:02:59;;;;;;;18.60;10.13;;;;;;;-140.05;100.00;61859.38;5039409;28;20200;-59
2021/12/11 00:05:26;;;;;;;22.15;10.27;;;;;;;-140.05;100.00;61859.38;5039139;28;20231;-59
2021/12/11 00:07:54;;;;;;;19.58;10.05;;;;;;;-140.05;100.00;61859.38;5041694;28;20540;-59
2021/12/11 00:10:36;;;;;;;11.00;6.90;;;;;;;-140.05;100.00;61859.38;5051160;28;20207;-58
2021/12/11 00:13:09;;;;;;;12.32;7.40;;;;;;;-140.05;100.00;61859.38;5050167;28;20299;-60
2021/12/11 00:15:42;;;;;;;11.88;7.95;;;;;;;-140.05;100.00;61859.38;5033455;28;20216;-58
2021/12/11 00:18:17;;;;;;;9.48;5.93;;;;;;;-140.05;100.00;61859.38;5047610;28;20211;-58
2021/12/11 00:21:01;;;;;;;10.88;6.60;;;;;;;-140.05;100.00;61859.38;5049427;28;20196;-59
2021/12/11 00:23:37;;;;;;;14.68;7.15;;;;;;;-140.05;100.00;61859.38;5049845;28;20658;-61
2021/12/11 00:26:07;;;;;;;10.77;6.40;;;;;;;-140.05;100.00;61859.38;5050316;28;20254;-59
2021/12/11 00:28:55;;;;;;;12.05;7.15;;;;;;;-140.05;100.00;61859.38;5049866;28;20196;-60
2021/12/11 00:31:22;;;;;;;15.02;7.55;;;;;;;-140.05;100.00;61859.38;5050339;28;20279;-59
2021/12/11 00:33:50;;;;;;;11.10;6.85;;;;;;;-140.05;100.00;61859.38;5049870;28;20201;-59
2021/12/11 00:36:21;;;;;;;12.23;7.40;;;;;;;-140.05;100.00;61859.38;5050408;28;20196;-62
2021/12/11 00:38:52;;;;;;;10.77;6.45;;;;;;;-140.05;100.00;61859.38;5038156;28;20203;-61
2021/12/11 00:41:22;;;;;;;12.13;6.68;;;;;;;-140.05;100.00;61859.38;5041363;28;20674;-59
2021/12/11 00:43:49;;;;;;;11.82;6.90;;;;;;;-140.05;100.00;61859.38;5040747;28;20200;-60
2021/12/11 00:46:23;;;;;;;11.75;6.80;;;;;;;-140.05;100.00;61859.38;5038618;28;20235;-61
2021/12/11 00:48:50;;;;;;;10.98;6.93;;;;;;;-140.05;100.00;61859.38;5045548;28;20211;-61
2021/12/11 00:51:21;;;;;;;11.55;7.20;;;;;;;-140.05;100.00;61859.38;5049773;28;20204;-59
2021/12/11 00:53:55;;;;;;;9.68;6.63;;;;;;;-140.05;100.00;61859.38;5050629;28;20192;-60
2021/12/11 00:56:33;;;;;;;10.75;6.30;;;;;;;-140.05;100.00;61859.38;5050272;28;20222;-61
2021/12/11 00:59:03;;;;;;;8.80;6.03;;;;;;;-140.05;100.00;61859.38;5048934;28;20390;-61
2021/12/11 01:01:35;;;;;;;11.18;6.22;;;;;;;-140.05;100.00;61859.38;5039197;28;20960;-60
2021/12/11 01:04:17;;;;;;;9.23;5.63;;;;;;;-140.05;100.00;61859.38;5037217;28;20231;-60
2021/12/11 01:06:50;;;;;;;7.63;4.70;;;;;;;-140.05;100.00;61859.38;5036377;28;20204;-59
2021/12/11 01:09:54;;;;;;;7.90;4.20;;;;;;;-140.05;100.00;61859.38;5034261;28;20686;-60
2021/12/11 01:12:37;;;;;;;8.95;4.15;;;;;;;-140.05;100.00;61859.38;5035610;28;20200;-60
2021/12/11 01:15:22;;;;;;;4.53;3.47;;;;;;;-140.05;100.00;61859.38;5043868;28;20204;-60
2021/12/11 01:18:11;;;;;;;5.47;4.00;;;;;;;-140.05;100.00;61859.38;5037271;28;20219;-62
2021/12/11 01:20:50;;;;;;;5.40;3.33;;;;;;;-140.05;100.00;61859.38;5039921;28;20292;-60
2021/12/11 01:23:35;;;;;;;4.03;3.20;;;;;;;-140.05;100.00;61859.38;5038823;28;20566;-61
2021/12/11 01:26:05;;;;;;;4.93;3.50;;;;;;;-140.05;100.00;61859.38;5017425;28;20232;-61
2021/12/11 01:28:33;;;;;;;5.22;3.20;;;;;;;-140.05;100.00;61859.38;5028603;28;20209;-61
2021/12/11 01:31:02;;;;;;;4.88;3.50;;;;;;;-140.05;100.00;61859.38;5024202;28;20208;-61
2021/12/11 01:33:30;;;;;;;4.82;3.28;;;;;;;-140.05;100.00;61859.38;5031168;28;20196;-60
2021/12/11 01:35:57;;;;;;;6.40;3.95;;;;;;;-140.05;100.00;61859.38;5041822;28;20223;-58
2021/12/11 01:38:28;;;;;;;6.57;3.63;;;;;;;-140.05;100.00;61859.38;5048948;28;20563;-59
2021/12/11 01:41:06;;;;;;;6.13;3.63;;;;;;;-140.05;100.00;61859.38;5049047;28;20211;-61
2021/12/11 01:43:36;;;;;;;5.28;3.72;;;;;;;-140.05;100.00;61859.38;5049080;28;20234;-59
2021/12/11 01:46:05;;;;;;;5.13;4.13;;;;;;;-140.05;100.00;61859.38;5036884;28;20224;-61
2021/12/11 01:48:37;;;;;;;5.53;3.80;;;;;;;-140.05;100.00;61859.38;5040392;28;20215;-60
2021/12/11 01:51:23;;;;;;;5.15;4.00;;;;;;;-140.05;100.00;61859.38;5038638;28;20287;-59
2021/12/11 01:53:56;;;;;;;7.85;4.40;;;;;;;-140.05;100.00;61859.38;5036638;28;20294;-61
2021/12/11 01:56:27;;;;;;;8.02;4.97;;;;;;;-140.05;100.00;61859.38;5038965;28;20283;-59
2021/12/11 01:59:11;;;;;;;6.38;4.35;;;;;;;-140.05;100.00;61859.38;5048598;28;20213;-56
2021/12/11 02:01:47;;;;;;;6.95;4.10;;;;;;;-140.05;100.00;61859.38;5028748;28;20610;-63
2021/12/11 02:04:19;;;;;;;6.20;4.45;;;;;;;-140.05;100.00;61859.38;5026157;28;20232;-59
2021/12/11 02:06:49;;;;;;;5.47;4.15;;;;;;;-140.05;100.00;61859.38;5038307;28;20205;-59
2021/12/11 02:09:24;;;;;;;9.20;4.55;;;;;;;-140.05;100.00;61859.38;5038836;28;20196;-59
2021/12/11 02:12:27;;;;;;;6.72;4.65;;;;;;;-140.05;100.00;61859.38;5039874;28;20199;-59
2021/12/11 02:14:55;;;;;;;7.75;5.18;;;;;;;-140.05;100.00;61859.38;5047120;28;20215;-59
2021/12/11 02:17:29;;;;;;;6.55;4.95;;;;;;;-140.05;100.00;61859.38;5044455;28;20196;-60
2021/12/11 02:19:59;;;;;;;6.53;4.53;;;;;;;-140.05;100.00;61859.38;5047622;28;20694;-61
2021/12/11 02:22:37;;;;;;;8.77;4.90;;;;;;;-140.05;100.00;61859.38;5047476;28;20188;-61
2021/12/11 02:25:09;;;;;;;6.85;4.55;;;;;;;-140.05;100.00;61859.38;5047468;28;20211;-59
2021/12/11 02:27:46;;;;;;;7.00;4.60;;;;;;;-140.05;100.00;61859.38;5048042;28;20230;-61
2021/12/11 02:30:25;;;;;;;7.97;4.80;;;;;;;-140.05;100.00;61859.38;5048400;28;20204;-60
2021/12/11 02:33:13;;;;;;;6.63;4.70;;;;;;;-140.05;100.00;61859.38;5033557;28;20200;-60
2021/12/11 02:35:47;;;;;;;7.10;4.75;;;;;;;-140.05;100.00;61859.38;5045968;28;20193;-60
2021/12/11 02:38:23;;;;;;;6.68;4.78;;;;;;;-140.05;100.00;61859.38;5036844;28;20855;-59
2021/12/11 02:40:53;;;;;;;8.15;5.15;;;;;;;-140.05;100.00;61859.38;5040177;28;20204;-60
2021/12/11 02:43:40;;;;;;;7.05;5.07;;;;;;;-140.05;100.00;61859.38;5036818;28;20204;-61
2021/12/11 02:46:11;;;;;;;9.20;5.95;;;;;;;-140.05;100.00;61859.38;5035175;28;20220;-61
2021/12/11 02:48:49;;;;;;;10.52;6.22;;;;;;;-140.05;100.00;61859.38;5021121;28;20250;-61
2021/12/11 02:51:40;;;;;;;9.85;6.10;;;;;;;-140.05;100.00;61859.38;5047600;28;20196;-60
2021/12/11 02:54:13;;;;;;;8.70;5.78;;;;;;;-140.05;100.00;61859.38;5046812;28;20715;-60
2021/12/11 02:56:48;;;;;;;7.43;5.55;;;;;;;-140.05;100.00;61859.38;5048354;28;20689;-59
2021/12/11 02:59:21;;;;;;;9.27;6.00;;;;;;;-140.05;100.00;61859.38;5047749;28;20216;-60
2021/12/11 03:01:58;;;;;;;7.22;5.50;;;;;;;-140.05;100.00;61859.38;5036487;28;20200;-59
2021/12/11 03:04:35;;;;;;;7.80;5.50;;;;;;;-140.05;100.00;61859.38;5037263;28;20540;-63
2021/12/11 03:07:06;;;;;;;9.85;6.20;;;;;;;-140.05;100.00;61859.38;5036123;28;20200;-59
2021/12/11 03:09:39;;;;;;;8.50;5.90;;;;;;;-140.05;100.00;61859.38;5037409;28;20254;-60
2021/12/11 03:12:09;;;;;;;8.85;6.50;;;;;;;-140.05;100.00;61859.38;5038661;28;20209;-59
2021/12/11 03:14:38;;;;;;;7.50;5.60;;;;;;;-140.05;100.00;61859.38;5034552;28;20295;-59
2021/12/11 03:17:06;;;;;;;9.13;5.88;;;;;;;-140.05;100.00;61859.38;5039515;28;20207;-59
2021/12/11 03:19:36;;;;;;;6.57;4.82;;;;;;;-140.05;100.00;61859.38;5035797;28;20351;-60
2021/12/11 03:22:07;;;;;;;7.28;4.70;;;;;;;-140.05;100.00;61859.38;5038285;28;20574;-60
2021/12/11 03:24:36;;;;;;;9.13;4.90;;;;;;;-140.05;100.00;61859.38;5039203;28;20205;-59
2021/12/11 03:27:04;;;;;;;6.20;4.60;;;;;;;-140.05;100.00;61859.38;5036541;28;20200;-60
2021/12/11 03:29:31;;;;;;;6.00;4.55;;;;;;;-140.05;100.00;61859.38;5039391;28;20211;-60
2021/12/11 03:31:59;;;;;;;6.82;4.95;;;;;;;-140.05;100.00;61859.38;5048257;28;20189;-59
2021/12/11 03:34:28;;;;;;;6.40;5.15;;;;;;;-140.05;100.00;61859.38;5051972;28;20196;-59
2021/12/11 03:36:57;;;;;;;7.53;4.68;;;;;;;-140.05;100.00;61859.38;5045326;28;20287;-63
2021/12/11 03:39:32;;;;;;;6.53;4.97;;;;;;;-140.05;100.00;61859.38;5038062;28;20208;-60
2021/12/11 03:42:02;;;;;;;6.28;4.70;;;;;;;-140.05;100.00;61859.38;5041713;28;20409;-61
2021/12/11 03:44:33;;;;;;;6.53;5.03;;;;;;;-140.05;100.00;61859.38;5042450;28;20582;-59
2021/12/11 03:47:08;;;;;;;7.18;5.10;;;;;;;-140.05;100.00;61859.38;5041759;28;20224;-61
2021/12/11 03:49:35;;;;;;;7.20;4.97;;;;;;;-140.05;100.00;61859.38;5043635;28;20188;-59
2021/12/11 03:52:04;;;;;;;7.35;4.65;;;;;;;-140.05;100.00;61859.38;5050161;28;20322;-60
2021/12/11 03:54:34;;;;;;;6.55;4.80;;;;;;;-140.05;100.00;61859.38;5050954;28;20229;-60
2021/12/11 03:57:04;;;;;;;6.97;4.45;;;;;;;-140.05;100.00;61859.38;5050376;28;20200;-59
2021/12/11 03:59:32;;;;;;;5.57;4.25;;;;;;;-140.05;100.00;61859.38;5051095;28;20224;-60
2021/12/11 04:02:04;;;;;;;5.00;3.97;;;;;;;-140.05;100.00;61859.38;5050135;28;20196;-61
2021/12/11 04:04:36;;;;;;;6.20;4.00;;;;;;;-140.05;100.00;61859.38;5050946;28;20200;-61
2021/12/11 04:07:06;;;;;;;4.80;4.03;;;;;;;-140.05;100.00;61859.38;5050113;28;20224;-58
2021/12/11 04:09:33;;;;;;;5.43;3.85;;;;;;;-140.05;100.00;61859.38;5050972;28;20671;-60
2021/12/11 04:12:03;;;;;;;6.00;4.18;;;;;;;-140.05;100.00;61859.38;5050275;28;20827;-59
2021/12/11 04:14:33;;;;;;;5.00;3.85;;;;;;;-140.05;100.00;61859.38;5050979;28;20200;-59
2021/12/11 04:17:03;;;;;;;3.97;3.58;;;;;;;-140.05;100.00;61859.38;5050666;28;20196;-58
2021/12/11 04:19:30;;;;;;;4.13;3.50;;;;;;;-140.05;100.00;61859.38;5050856;28;20217;-60
2021/12/11 04:21:57;;;;;;;4.68;3.58;;;;;;;-140.05;100.00;61859.38;5038226;28;20189;-59
2021/12/11 04:24:28;;;;;;;4.25;3.63;;;;;;;-140.05;100.00;61859.38;5025104;28;20212;-61
2021/12/11 04:26:56;;;;;;;5.20;3.60;;;;;;;-140.05;100.00;61859.38;5041458;28;20232;-60
2021/12/11 04:29:24;;;;;;;5.75;3.13;;;;;;;-140.05;100.00;61859.38;5041387;28;20219;-61
2021/12/11 04:31:53;;;;;;;5.00;3.08;;;;;;;-140.05;100.00;61859.38;5039111;28;20284;-59
2021/12/11 04:34:22;;;;;;;4.95;3.72;;;;;;;-140.05;100.00;61859.38;5046745;28;20188;-59
2021/12/11 04:37:11;;;;;;;6.20;3.88;;;;;;;-140.05;100.00;61859.38;5050519;28;20594;-58
2021/12/11 04:39:45;;;;;;;6.30;3.40;;;;;;;-140.05;100.00;61859.38;5049238;28;20280;-58
2021/12/11 04:42:22;;;;;;;4.95;3.67;;;;;;;-140.05;100.00;61859.38;5049627;28;20193;-60
2021/12/11 04:44:50;;;;;;;4.45;3.20;;;;;;;-140.05;100.00;61859.38;5049960;28;20208;-60
2021/12/11 04:47:39;;;;;;;4.70;3.50;;;;;;;-140.05;100.00;61859.38;5034803;28;20326;-61
2021/12/11 04:50:18;;;;;;;5.60;3.70;;;;;;;-140.05;100.00;61859.38;5038864;28;20293;-59
2021/12/11 04:52:55;;;;;;;4.80;3.85;;;;;;;-140.05;100.00;61859.38;5037606;28;20296;-59
2021/12/11 05:03:45;;;;;;;7.28;4.00;;;;;;;-140.05;100.00;61859.38;5048774;28;20200;-58
2021/12/11 05:11:39;;;;;;;5.93;4.63;;;;;;;-140.05;100.00;61859.38;5049518;28;20197;-60
2021/12/11 05:14:12;;;;;;;6.68;5.00;;;;;;;-140.05;100.00;61859.38;5049603;28;20208;-60
2021/12/11 05:16:40;;;;;;;8.35;5.43;;;;;;;-140.05;100.00;61859.38;5030021;28;20205;-61
2021/12/11 05:19:08;;;;;;;9.13;5.38;;;;;;;-140.05;100.00;61859.38;5030874;28;20192;-61
2021/12/11 05:21:35;;;;;;;7.30;4.90;;;;;;;-140.05;100.00;61859.38;5037937;28;20941;-62
2021/12/11 05:24:04;;;;;;;8.52;5.70;;;;;;;-140.05;100.00;61859.38;5037757;28;20212;-62
2021/12/11 05:26:33;;;;;;;8.75;5.95;;;;;;;-140.05;100.00;61859.38;5049051;28;20243;-59
2021/12/11 05:29:00;;;;;;;8.73;5.80;;;;;;;-140.05;100.00;61859.38;5048902;28;20207;-60
2021/12/11 05:31:27;;;;;;;8.90;6.18;;;;;;;-140.05;100.00;61859.38;5048920;28;20283;-57
2021/12/11 05:33:54;;;;;;;9.98;6.90;;;;;;;-140.05;100.00;61859.38;5048618;28;20280;-59
2021/12/11 05:36:22;;;;;;;10.80;8.10;;;;;;;-140.05;100.00;61859.38;5051001;28;20212;-58
2021/12/11 05:38:49;;;;;;;10.52;6.82;;;;;;;-140.05;100.00;61859.38;5049523;28;20196;-58
2021/12/11 05:41:20;;;;;;;9.10;5.53;;;;;;;-140.05;100.00;61859.38;5049156;28;20215;-59
2021/12/11 05:43:49;;;;;;;9.27;5.78;;;;;;;-140.05;100.00;61859.38;5049000;28;20210;-63
2021/12/11 05:46:17;;;;;;;8.23;5.80;;;;;;;-140.05;100.00;61859.38;5048728;28;20219;-60
2021/12/11 05:48:48;;;;;;;8.80;5.18;;;;;;;-140.05;100.00;61859.38;5048751;28;20558;-59
2021/12/11 05:51:21;;;;;;;7.30;5.10;;;;;;;-140.05;100.00;61859.38;5046120;28;20189;-60
2021/12/11 05:53:52;;;;;;;7.93;6.07;;;;;;;-140.05;100.00;61859.38;5034736;28;20208;-59
2021/12/11 05:56:20;;;;;;;9.05;5.65;;;;;;;-140.05;100.00;61859.38;5037279;28;20335;-60
2021/12/11 06:01:22;;;;;;;7.00;4.80;;;;;;;-140.05;100.00;61859.38;5035946;28;20200;-63
2021/12/11 06:03:50;;;;;;;10.68;5.30;;;;;;;-140.05;100.00;61859.38;5047844;28;20671;-62
2021/12/11 06:06:17;;;;;;;7.90;4.70;;;;;;;-140.05;100.00;61859.38;5048656;28;20219;-62
2021/12/11 06:08:44;;;;;;;9.25;4.85;;;;;;;-140.05;100.00;61859.38;5048782;28;20576;-62
2021/12/11 06:11:13;;;;;;;8.10;5.00;;;;;;;-140.05;100.00;61859.38;5048077;28;20260;-61
2021/12/11 06:13:40;;;;;;;6.50;5.00;;;;;;;-140.05;100.00;61859.38;5047800;28;20183;-61
2021/12/11 06:16:08;;;;;;;7.95;5.22;;;;;;;-140.05;100.00;61859.38;5047985;28;20252;-62
2021/12/11 06:18:35;;;;;;;9.73;6.30;;;;;;;-140.05;100.00;61859.38;5047776;28;20192;-58
2021/12/11 06:21:03;;;;;;;12.52;6.03;;;;;;;-140.05;100.00;61859.38;5048049;28;20196;-59
2021/12/11 06:23:30;;;;;;;9.30;5.70;;;;;;;-140.05;100.00;61859.38;5047847;28;20212;-58
2021/12/11 06:25:57;;;;;;;8.40;6.10;;;;;;;-140.05;100.00;61859.38;5035991;28;20216;-61
2021/12/11 06:28:26;;;;;;;7.07;5.68;;;;;;;-140.05;100.00;61859.38;5039013;28;20603;-60
2021/12/11 06:30:57;;;;;;;11.50;5.85;;;;;;;-140.05;100.00;61859.38;5035872;28;20204;-59
2021/12/11 06:33:27;;;;;;;11.13;7.60;;;;;;;-140.05;100.00;61859.38;5035167;28;20327;-58
2021/12/11 06:36:00;;;;;;;12.48;7.15;;;;;;;-140.05;100.00;61859.38;5043160;28;20201;-61
2021/12/11 06:38:30;;;;;;;15.02;9.20;;;;;;;-140.05;100.00;61859.38;5044457;28;20204;-61
2021/12/11 06:40:59;;;;;;;10.43;7.57;;;;;;;-140.05;100.00;61859.38;5046131;28;20604;-59
2021/12/11 06:43:26;;;;;;;18.83;10.07;;;;;;;-140.05;100.00;61859.38;5045830;28;20203;-59
2021/12/11 06:45:53;;;;;;;15.00;9.95;;;;;;;-140.05;100.00;61859.38;5045843;28;20216;-62
2021/12/11 06:48:20;;;;;;;18.83;11.35;;;;;;;-140.05;100.00;61859.38;5045650;28;20211;-62
2021/12/11 06:50:48;;;;;;;16.23;11.82;;;;;;;-140.05;100.00;61859.38;5045646;28;20197;-60
2021/12/11 06:53:31;;;;;;;19.30;12.95;;;;;;;-140.05;100.00;61859.38;5044831;28;20859;-61
2021/12/11 06:55:58;;;;;;;17.23;11.15;;;;;;;-140.05;100.00;61859.38;5045387;28;20259;-61
2021/12/11 06:58:27;;;;;;;20.65;11.60;;;;;;;-140.05;100.00;61859.38;5045639;28;20188;-60
2021/12/11 07:00:55;;;;;;;17.05;11.90;;;;;;;-140.05;100.00;61859.38;5044527;28;20208;-61
2021/12/11 07:03:22;;;;;;;20.83;13.52;;;;;;;-140.05;100.00;61859.38;5045548;28;20207;-59
2021/12/11 07:05:50;;;;;;;19.85;12.77;;;;;;;-140.05;100.00;61859.38;5049817;28;20224;-61
2021/12/11 07:08:18;;;;;;;20.27;13.43;;;;;;;-140.05;100.00;61859.38;5049073;28;21151;-56
2021/12/11 07:10:46;;;;;;;24.27;16.17;;;;;;;-140.05;100.00;61859.38;5050313;28;20204;-59
2021/12/11 07:13:14;;;;;;;22.65;16.08;;;;;;;-140.05;100.00;61859.38;5051564;28;20250;-58
2021/12/11 07:15:42;;;;;;;26.98;17.92;;;;;;;-140.05;100.00;61859.38;5051266;28;20193;-60
2021/12/11 07:18:09;;;;;;;33.33;23.55;;;;;;;-140.05;100.00;61859.38;5050487;28;20394;-59
2021/12/11 07:20:36;;;;;;;33.60;22.97;;;;;;;-140.05;100.00;61859.38;5049231;28;20201;-59
2021/12/11 07:23:04;;;;;;;51.00;35.67;;;;;;;-140.05;100.00;61859.38;5048364;28;20542;-63
2021/12/11 07:25:42;;;;;;;45.22;32.17;;;;;;;-140.05;100.00;61859.38;5048540;28;20193;-60
2021/12/11 07:28:11;;;;;;;46.65;32.70;;;;;;;-140.05;100.00;61859.38;5047981;28;20215;-64
2021/12/11 07:30:40;;;;;;;44.70;31.10;;;;;;;-140.05;100.00;61859.38;5048640;28;20208;-60
2021/12/11 07:33:08;;;;;;;45.30;30.50;;;;;;;-140.05;100.00;61859.38;5049499;28;20430;-58
2021/12/11 07:35:37;;;;;;;47.50;34.70;;;;;;;-140.05;100.00;61859.38;5050448;28;20562;-59
2021/12/11 07:38:08;;;;;;;43.45;32.00;;;;;;;-140.05;100.00;61859.38;5049588;28;20435;-61
2021/12/11 07:40:40;;;;;;;54.00;37.08;;;;;;;-140.05;100.00;61859.38;5048691;28;20675;-59
2021/12/11 07:43:08;;;;;;;48.97;34.58;;;;;;;-140.05;100.00;61859.38;5048475;28;20208;-60
2021/12/11 07:45:35;;;;;;;49.28;33.00;;;;;;;-140.05;100.00;61859.38;5048541;28;20197;-62
2021/12/11 07:48:04;;;;;;;50.60;34.22;;;;;;;-140.05;100.00;61859.38;5048832;28;20247;-60
2021/12/11 07:50:31;;;;;;;49.50;35.33;;;;;;;-140.05;100.00;61859.38;5049108;28;20200;-61
2021/12/11 07:52:59;;;;;;;50.00;36.53;;;;;;;-140.05;100.00;61859.38;5048259;28;20447;-58
2021/12/11 07:55:27;;;;;;;51.90;35.20;;;;;;;-140.05;100.00;61859.38;5048267;28;20471;-57
2021/12/11 07:57:54;;;;;;;49.10;35.70;;;;;;;-140.05;100.00;61859.38;5047635;28;20261;-58
2021/12/11 08:00:25;;;;;;;46.03;31.93;;;;;;;-140.05;100.00;61859.38;5037712;28;20456;-60
2021/12/11 08:02:52;;;;;;;41.13;28.60;;;;;;;-140.05;100.00;61859.38;5038080;28;20439;-62
2021/12/11 08:05:21;;;;;;;34.60;24.93;;;;;;;-140.05;100.00;61859.38;5043195;28;20551;-58
2021/12/11 08:07:48;;;;;;;31.13;22.83;;;;;;;-140.05;100.00;61859.38;5049435;28;20532;-58
2021/12/11 08:10:19;;;;;;;30.83;21.67;;;;;;;-140.05;100.00;61859.38;5046017;28;20470;-58
2021/12/11 08:12:48;;;;;;;30.93;21.43;;;;;;;-140.05;100.00;61859.38;5047305;28;20542;-59
2021/12/11 08:15:16;;;;;;;80.27;57.40;;;;;;;-140.05;100.00;61859.38;5045430;28;20435;-59
2021/12/11 08:17:51;;;;;;;49.70;34.93;;;;;;;-140.05;100.00;61859.38;5048939;28;20447;-58
2021/12/11 08:20:18;;;;;;;51.00;35.87;;;;;;;-140.05;100.00;61859.38;5048948;28;20450;-57
2021/12/11 08:22:45;;;;;;;50.43;35.37;;;;;;;-140.05;100.00;61859.38;5049291;28;20438;-56
2021/12/11 08:25:12;;;;;;;54.63;37.37;;;;;;;-140.05;100.00;61859.38;5049447;28;20923;-56
2021/12/11 08:27:39;;;;;;;89.40;66.37;;;;;;;-140.05;100.00;61859.38;5048754;28;20577;-64
2021/12/11 08:30:07;;;;;;;116.83;76.37;;;;;;;-140.05;100.00;61859.38;5049231;28;20500;-59
2021/12/11 08:32:35;;;;;;;94.73;63.53;;;;;;;-140.05;100.00;61859.38;5048496;28;20449;-60
2021/12/11 08:35:05;;;;;;;67.33;43.53;;;;;;;-140.05;100.00;61859.38;5049293;28;20483;-60
2021/12/11 08:37:32;;;;;;;54.63;38.50;;;;;;;-140.05;100.00;61859.38;5045678;28;20441;-60
2021/12/11 08:39:59;;;;;;;58.97;38.67;;;;;;;-140.05;100.00;61859.38;5048927;28;20526;-60
2021/12/11 08:42:26;;;;;;;61.37;38.47;;;;;;;-140.05;100.00;61859.38;5044773;28;20447;-58
2021/12/11 08:45:04;;;;;;;61.40;40.13;;;;;;;-140.05;100.00;61859.38;5048123;28;20996;-58
2021/12/11 08:47:39;;;;;;;54.93;39.10;;;;;;;-140.05;100.00;61859.38;5047881;28;20567;-57
2021/12/11 08:50:13;;;;;;;55.43;37.50;;;;;;;-140.05;100.00;61859.38;5048972;28;20497;-57
2021/12/11 08:52:43;;;;;;;48.10;32.07;;;;;;;-140.05;100.00;61859.38;5045743;28;20439;-56
2021/12/11 08:55:18;;;;;;;79.37;53.53;;;;;;;-140.05;100.00;61859.38;5047662;28;20968;-58
2021/12/11 08:57:45;;;;;;;48.57;29.97;;;;;;;-140.05;100.00;61859.38;5046399;28;20443;-61
2021/12/11 09:00:19;;;;;;;40.00;29.13;;;;;;;-140.05;100.00;61859.38;5048667;28;20439;-59
2021/12/11 09:02:53;;;;;;;26.90;17.70;;;;;;;-140.05;100.00;61859.38;5032820;28;20439;-58
2021/12/11 09:05:26;;;;;;;23.77;16.23;;;;;;;-140.05;100.00;61859.38;5049688;28;20884;-59
2021/12/11 09:08:03;;;;;;;19.50;13.67;;;;;;;-140.05;100.00;61859.38;5048579;28;20600;-60
2021/12/11 09:10:50;;;;;;;20.87;13.63;;;;;;;-140.05;100.00;61859.38;5047580;28;20449;-58
2021/12/11 09:13:26;;;;;;;10.90;7.70;;;;;;;-140.05;100.00;61859.38;5047206;28;20492;-61
2021/12/11 09:16:08;;;;;;;13.80;9.80;;;;;;;-140.05;100.00;61859.38;5047593;28;20451;-58
2021/12/11 09:18:48;;;;;;;10.00;7.40;;;;;;;-140.05;100.00;61859.38;5047779;28;20779;-62
2021/12/11 09:21:21;;;;;;;94.33;54.40;;;;;;;-140.05;100.00;61859.38;5048119;28;21196;-60
2021/12/11 09:24:24;;;;;;;222.50;172.93;;;;;;;-140.05;100.00;61859.38;5047573;28;21048;-61
2021/12/11 09:27:00;;;;;;;10.63;7.47;;;;;;;-140.05;100.00;61859.38;5031237;28;20506;-59
2021/12/11 09:29:43;;;;;;;10.73;7.17;;;;;;;-140.05;100.00;61859.38;5047860;28;20449;-59
2021/12/11 09:32:32;;;;;;;10.57;7.53;;;;;;;-140.05;100.00;61859.38;5046101;28;20885;-58
2021/12/11 09:35:30;;;;;;;8.67;5.60;;;;;;;-140.05;100.00;61859.38;5045469;28;20439;-61
2021/12/11 09:38:06;;;;;;;6.83;4.90;;;;;;;-140.05;100.00;61859.38;5047386;28;20475;-59
2021/12/11 09:40:39;;;;;;;7.90;5.10;;;;;;;-140.05;100.00;61859.38;5046855;28;20976;-60
2021/12/11 09:43:06;;;;;;;5.80;3.23;;;;;;;-140.05;100.00;61859.38;5047062;28;21421;-61
2021/12/11 09:45:39;;;;;;;5.20;3.10;;;;;;;-140.05;100.00;61859.38;5048566;28;20443;-59
2021/12/11 09:48:18;;;;;;;3.57;3.03;;;;;;;-140.05;100.00;61859.38;5047974;28;20521;-62
2021/12/11 09:50:55;;;;;;;4.80;3.57;;;;;;;-140.05;100.00;61859.38;5048008;28;20505;-59
2021/12/11 09:53:27;;;;;;;4.30;3.30;;;;;;;-140.05;100.00;61859.38;5044377;28;20451;-58
2021/12/11 09:55:56;;;;;;;6.63;4.60;;;;;;;-140.05;100.00;61859.38;5047173;28;20467;-57
2021/12/11 09:58:28;;;;;;;34.63;24.13;;;;;;;-140.05;100.00;61859.38;5047619;28;20442;-58
2021/12/11 10:01:17;;;;;;;29.63;20.33;;;;;;;-140.05;100.00;61859.38;5047974;28;20453;-60
2021/12/11 10:04:13;;;;;;;18.37;12.93;;;;;;;-140.05;100.00;61859.38;5047862;28;20447;-57
2021/12/11 10:09:26;;;;;;;16.83;10.33;;;;;;;-140.05;100.00;61859.38;5047621;28;20457;-63
2021/12/11 10:12:06;;;;;;;13.63;9.73;;;;;;;-140.05;100.00;61859.38;5049594;28;20454;-62
2021/12/11 10:14:43;;;;;;;16.73;10.80;;;;;;;-140.05;100.00;61859.38;5047440;28;20538;-62
2021/12/11 10:17:20;;;;;;;20.27;13.03;;;;;;;-140.05;100.00;61859.38;5047483;28;20442;-60
2021/12/11 10:19:49;;;;;;;19.80;13.40;;;;;;;-140.05;100.00;61859.38;5048248;28;20446;-59
2021/12/11 10:22:20;;;;;;;25.00;14.20;;;;;;;-140.05;100.00;61859.38;5046960;28;20454;-59
2021/12/11 10:24:48;;;;;;;45.80;30.50;;;;;;;-140.05;100.00;61859.38;5048143;28;20450;-59
2021/12/11 10:27:20;;;;;;;51.83;34.87;;;;;;;-140.05;100.00;61859.38;5047019;28;20478;-58
2021/12/11 10:29:48;;;;;;;64.87;42.70;;;;;;;-140.05;100.00;61859.38;5047365;28;20530;-57
2021/12/11 10:32:20;;;;;;;75.50;50.40;;;;;;;-140.05;100.00;61859.38;5047104;28;20522;-60
2021/12/11 10:34:52;;;;;;;70.60;46.93;;;;;;;-140.05;100.00;61859.38;5047573;28;20458;-56
2021/12/11 10:37:28;;;;;;;70.73;45.10;;;;;;;-140.05;100.00;61859.38;5031602;28;20598;-61
2021/12/11 10:39:59;;;;;;;36.10;24.30;;;;;;;-140.05;100.00;61859.38;5052043;28;20461;-60
2021/12/11 10:42:27;;;;;;;30.40;18.97;;;;;;;-140.05;100.00;61859.38;5050661;28;20489;-62
2021/12/11 10:44:58;;;;;;;30.33;19.87;;;;;;;-140.05;100.00;61859.38;5051402;28;20447;-60
2021/12/11 10:47:39;;;;;;;22.53;16.23;;;;;;;-140.05;100.00;61859.38;5035869;28;20500;-62
2021/12/11 10:50:26;;;;;;;21.87;14.13;;;;;;;-140.05;100.00;61859.38;5051871;28;20529;-58
2021/12/11 10:52:54;;;;;;;14.90;10.77;;;;;;;-140.05;100.00;61859.38;5050529;28;20969;-59
2021/12/11 10:55:25;;;;;;;12.77;9.93;;;;;;;-140.05;100.00;61859.38;5050427;28;20478;-58
2021/12/11 10:57:54;;;;;;;19.20;10.43;;;;;;;-140.05;100.00;61859.38;5051056;28;20451;-57
2021/12/11 11:00:27;;;;;;;9.73;7.47;;;;;;;-140.05;100.00;61859.38;5044509;28;20457;-57
2021/12/11 11:02:55;;;;;;;8.27;5.97;;;;;;;-140.05;100.00;61859.38;5036068;28;20461;-58
2021/12/11 11:05:24;;;;;;;7.80;5.50;;;;;;;-140.05;100.00;61859.38;5047108;28;20551;-59
2021/12/11 11:07:51;;;;;;;7.67;6.03;;;;;;;-140.05;100.00;61859.38;5040351;28;20486;-59
2021/12/11 11:10:27;;;;;;;7.93;6.30;;;;;;;-140.05;100.00;61859.38;5039970;28;20443;-58
2021/12/11 11:12:57;;;;;;;9.37;6.03;;;;;;;-140.05;100.00;61859.38;5051493;28;20845;-59
2021/12/11 11:15:26;;;;;;;34.17;21.87;;;;;;;-140.05;100.00;61859.38;5040640;28;20446;-62
2021/12/11 11:17:54;;;;;;;42.47;30.10;;;;;;;-140.05;100.00;61859.38;5050548;28;20435;-61
2021/12/11 11:20:29;;;;;;;14.50;10.33;;;;;;;-140.05;100.00;61859.38;5039791;28;20532;-59
2021/12/11 11:22:57;;;;;;;13.87;7.77;;;;;;;-140.05;100.00;61859.38;5039856;28;20953;-58
2021/12/11 11:25:29;;;;;;;9.83;7.43;;;;;;;-140.05;100.00;61859.38;5051026;28;20443;-58
2021/12/11 11:28:03;;;;;;;12.43;8.50;;;;;;;-140.05;100.00;61859.38;5049412;28;21003;-57
2021/12/11 11:30:37;;;;;;;12.43;8.00;;;;;;;-140.05;100.00;61859.38;5049111;28;20549;-59
2021/12/11 11:33:07;;;;;;;11.80;7.60;;;;;;;-140.05;100.00;61859.38;5049973;28;20446;-58
2021/12/11 11:35:42;;;;;;;9.73;7.10;;;;;;;-140.05;100.00;61859.38;5049886;28;20451;-60
2021/12/11 11:38:16;;;;;;;10.40;6.60;;;;;;;-140.05;100.00;61859.38;5049892;28;20457;-61
2021/12/11 11:40:47;;;;;;;11.40;7.63;;;;;;;-140.05;100.00;61859.38;5050208;28;20461;-58
2021/12/11 11:43:17;;;;;;;14.60;9.33;;;;;;;-140.05;100.00;61859.38;5049941;28;20447;-60